Terminal Aerodrome Forecast
Issued by NWS

Home | Current Version | Previous Version | Text Only | Print | Product List | Glossary On
Versions: 1 2 3 4 5 6 7 8 9 10 11 12 13 14 15 16 17 18 19 20 21 22 23 24 25 26 27 28 29 30 31 32 33 34 35
919
FTUS46 KPDT 170151 AAB
TAFALW
TAF AMD
KALW 170151Z 1702/1724 20007KT 5SM BR SCT015 BKN120
      TEMPO 1702/1706 1/2SM FZFG OVC001
     FM170600 15005KT 6SM BR OVC020
     FM171200 16006KT 4SM BR BKN030 OVC050
     FM172100 19006KT 6SM BR SCT050 OVC100=

USA.gov is the U.S. government's official web portal to all federal, state and local government web resources and services.